Terminal Aerodrome Forecast
Issued by NWS Chicago, IL

Home | Current Version | Previous Version | Text Only | Print | Product List | Glossary On
Versions: 1 2 3 4 5 6 7 8 9 10 11 12 13 14 15 16 17 18 19 20 21 22 23 24 25
872
FTUS43 KLOT 111507 AAA
TAFRFD
TAF AMD
KRFD 111507Z 1115/1212 34007KT P6SM SKC
     FM112000 25006KT P6SM BKN200
     FM120500 25008KT P6SM -SN BKN015=

USA.gov is the U.S. government's official web portal to all federal, state and local government web resources and services.